createdAt,value
2019-03-30T00:00:11.148Z,60.60
2019-03-30T00:00:42.334Z,60.46
2019-03-30T00:01:13.543Z,60.19
2019-03-30T00:01:44.810Z,60.03
2019-03-30T00:02:16.027Z,59.96
2019-03-30T00:02:47.284Z,60.12
2019-03-30T00:03:18.503Z,59.91
2019-03-30T00:03:49.770Z,59.77
2019-03-30T00:04:20.971Z,59.66
2019-03-30T00:04:52.243Z,59.68
2019-03-30T00:05:23.470Z,59.85
2019-03-30T00:05:54.666Z,60.02
2019-03-30T00:06:25.878Z,60.73
2019-03-30T00:06:57.089Z,60.36
2019-03-30T00:07:28.303Z,59.84
2019-03-30T00:07:59.510Z,59.64
2019-03-30T00:08:30.744Z,59.64
2019-03-30T00:09:02.004Z,59.58
2019-03-30T00:09:33.200Z,59.93
2019-03-30T00:10:04.427Z,59.61
2019-03-30T00:10:35.635Z,59.40
2019-03-30T00:11:06.847Z,59.28
2019-03-30T00:11:38.059Z,59.25
2019-03-30T00:12:09.256Z,59.23
2019-03-30T00:12:40.465Z,59.23
2019-03-30T00:13:11.756Z,59.36
2019-03-30T00:13:42.950Z,59.56
2019-03-30T00:14:14.156Z,59.82
2019-03-30T00:14:45.355Z,60.18
2019-03-30T00:15:16.579Z,60.15
2019-03-30T00:15:47.809Z,60.35
2019-03-30T00:16:19.001Z,60.74
2019-03-30T00:16:50.246Z,62.08
2019-03-30T00:17:21.467Z,61.61
2019-03-30T00:17:52.687Z,60.89
2019-03-30T00:18:23.911Z,59.85
2019-03-30T00:18:55.165Z,59.16
2019-03-30T00:19:34.924Z,59.24
2019-03-30T00:19:59.289Z,59.57
2019-03-30T00:20:30.523Z,59.60
2019-03-30T00:21:01.721Z,59.99
2019-03-30T00:21:32.940Z,60.30
2019-03-30T00:22:04.139Z,60.91
2019-03-30T00:22:35.349Z,60.82
2019-03-30T00:23:06.583Z,61.08
2019-03-30T00:23:37.843Z,61.80
2019-03-30T00:24:09.114Z,62.65
2019-03-30T00:24:40.335Z,63.42
2019-03-30T00:25:11.545Z,64.16
2019-03-30T00:25:42.759Z,64.69
2019-03-30T00:26:13.978Z,65.10
2019-03-30T00:26:45.195Z,65.50
2019-03-30T00:27:16.427Z,65.71
2019-03-30T00:27:47.650Z,65.96
2019-03-30T00:28:18.854Z,66.24
2019-03-30T00:28:50.122Z,66.33
2019-03-30T00:29:21.331Z,66.54
2019-03-30T00:29:52.540Z,66.90
2019-03-30T00:30:23.781Z,67.14
2019-03-30T00:30:55.004Z,67.35
2019-03-30T00:31:26.275Z,67.66
2019-03-30T00:31:57.486Z,67.72
2019-03-30T00:32:28.696Z,67.70
2019-03-30T00:32:59.935Z,67.70
2019-03-30T00:33:31.151Z,67.67
2019-03-30T00:34:02.363Z,67.78
2019-03-30T00:34:33.580Z,67.83
2019-03-30T00:35:04.782Z,67.73
2019-03-30T00:35:35.991Z,67.96
2019-03-30T00:36:07.232Z,67.36
2019-03-30T00:36:38.506Z,67.21
2019-03-30T00:37:09.711Z,67.21
2019-03-30T00:37:40.921Z,67.23
2019-03-30T00:38:12.181Z,67.20
2019-03-30T00:38:43.425Z,67.13
2019-03-30T00:39:14.612Z,67.24
2019-03-30T00:39:45.872Z,66.78
2019-03-30T00:40:17.050Z,66.63
2019-03-30T00:40:48.262Z,66.69
2019-03-30T00:41:19.481Z,66.68
2019-03-30T00:41:50.743Z,67.00
2019-03-30T00:42:21.958Z,66.70
2019-03-30T00:42:53.184Z,66.41
2019-03-30T00:43:24.431Z,66.57
2019-03-30T00:43:55.644Z,66.24
2019-03-30T00:44:26.882Z,65.95
2019-03-30T00:44:58.076Z,65.95
2019-03-30T00:45:29.296Z,66.49
2019-03-30T00:46:00.509Z,66.10
2019-03-30T00:46:32.311Z,65.68
2019-03-30T00:47:03.525Z,65.52
2019-03-30T00:47:34.769Z,65.76
2019-03-30T00:48:05.997Z,65.83
2019-03-30T00:48:37.259Z,65.90
2019-03-30T00:49:08.473Z,65.94
2019-03-30T00:49:48.978Z,66.00
2019-03-30T00:50:12.658Z,67.11
2019-03-30T00:50:43.893Z,66.38
2019-03-30T00:51:15.099Z,65.95
2019-03-30T00:51:46.320Z,65.97
2019-03-30T00:52:17.532Z,66.15
2019-03-30T00:52:48.744Z,66.17
2019-03-30T00:53:19.979Z,66.42
2019-03-30T00:53:51.195Z,65.36
2019-03-30T00:54:22.394Z,65.39
2019-03-30T00:54:53.615Z,65.40
2019-03-30T00:55:26.117Z,65.15
2019-03-30T00:55:57.347Z,65.23
2019-03-30T00:56:28.556Z,64.96
2019-03-30T00:56:59.790Z,64.96
2019-03-30T00:57:31.984Z,64.99
2019-03-30T00:58:03.192Z,64.96
2019-03-30T00:58:34.474Z,64.98
2019-03-30T00:59:05.694Z,65.10
2019-03-30T00:59:36.899Z,65.24
2019-03-30T01:00:08.142Z,65.33
2019-03-30T01:00:39.351Z,65.74
2019-03-30T01:01:10.565Z,65.46
2019-03-30T01:01:41.771Z,65.48
2019-03-30T01:02:13.061Z,65.41
2019-03-30T01:02:44.276Z,65.43
2019-03-30T01:03:15.509Z,66.41
2019-03-30T01:03:47.217Z,65.64
2019-03-30T01:04:18.555Z,65.16
2019-03-30T01:04:49.790Z,64.99
2019-03-30T01:05:20.995Z,64.88
2019-03-30T01:05:52.215Z,64.92
2019-03-30T01:06:23.413Z,65.38
2019-03-30T01:06:54.709Z,65.23
2019-03-30T01:07:25.943Z,65.38
2019-03-30T01:07:57.126Z,66.03
2019-03-30T01:08:28.348Z,65.65
2019-03-30T01:08:59.607Z,64.98
2019-03-30T01:09:30.812Z,64.66
2019-03-30T01:10:02.051Z,64.50
2019-03-30T01:10:33.262Z,64.59
2019-03-30T01:11:04.524Z,64.48
2019-03-30T01:11:35.763Z,64.42
2019-03-30T01:12:07.026Z,64.51
2019-03-30T01:12:38.241Z,64.55
2019-03-30T01:13:09.449Z,64.57
2019-03-30T01:13:40.670Z,64.73
2019-03-30T01:14:11.921Z,64.78
2019-03-30T01:14:43.140Z,64.77
2019-03-30T01:15:14.449Z,64.76
2019-03-30T01:15:45.659Z,64.71
2019-03-30T01:16:16.932Z,64.72
2019-03-30T01:16:48.134Z,64.87
2019-03-30T01:17:19.358Z,65.01
2019-03-30T01:17:50.566Z,65.08
2019-03-30T01:18:21.817Z,65.11
2019-03-30T01:18:53.060Z,65.29
2019-03-30T01:19:24.277Z,65.47
2019-03-30T01:20:02.734Z,65.51
2019-03-30T01:20:28.466Z,65.54
2019-03-30T01:20:59.684Z,65.58
2019-03-30T01:21:30.933Z,65.74
2019-03-30T01:22:02.143Z,65.71
2019-03-30T01:22:33.358Z,65.67
2019-03-30T01:23:04.591Z,65.70
2019-03-30T01:23:35.804Z,65.73
2019-03-30T01:24:07.044Z,65.78
2019-03-30T01:24:38.318Z,65.70
2019-03-30T01:25:09.663Z,65.74
2019-03-30T01:25:40.910Z,65.87
2019-03-30T01:26:12.121Z,65.98
2019-03-30T01:26:43.336Z,66.03
2019-03-30T01:27:14.593Z,66.06
2019-03-30T01:27:45.808Z,66.18
2019-03-30T01:28:17.019Z,66.38
2019-03-30T01:28:48.228Z,66.57
2019-03-30T01:29:19.452Z,66.94
2019-03-30T01:29:50.670Z,67.28
2019-03-30T01:30:23.393Z,67.48
2019-03-30T01:30:54.883Z,67.66
2019-03-30T01:31:26.154Z,67.77
2019-03-30T01:31:57.380Z,67.79
2019-03-30T01:32:28.631Z,67.83
2019-03-30T01:32:59.879Z,67.91
2019-03-30T01:33:31.109Z,67.96
2019-03-30T01:34:02.330Z,67.97
2019-03-30T01:34:33.531Z,68.08
2019-03-30T01:35:04.802Z,68.32
2019-03-30T01:35:36.035Z,68.38
2019-03-30T01:36:07.276Z,68.40
2019-03-30T01:36:38.495Z,68.51
2019-03-30T01:37:09.742Z,68.68
2019-03-30T01:37:40.959Z,68.95
2019-03-30T01:38:12.167Z,69.06
2019-03-30T01:38:43.373Z,69.05
2019-03-30T01:39:14.663Z,69.00
2019-03-30T01:39:45.935Z,68.90
2019-03-30T01:40:17.142Z,69.09
2019-03-30T01:40:48.425Z,68.92
2019-03-30T01:41:19.664Z,68.68
2019-03-30T01:41:50.871Z,68.57
2019-03-30T01:42:22.163Z,68.48
2019-03-30T01:42:53.378Z,68.53
2019-03-30T01:43:24.587Z,68.35
2019-03-30T01:43:55.821Z,68.37
2019-03-30T01:44:27.424Z,68.43
2019-03-30T01:44:58.635Z,68.95
2019-03-30T01:45:29.844Z,68.71
2019-03-30T01:46:01.060Z,68.12
2019-03-30T01:46:32.292Z,67.68
2019-03-30T01:47:03.538Z,67.42
2019-03-30T01:47:34.754Z,67.30
2019-03-30T01:48:05.981Z,67.30
2019-03-30T01:48:37.229Z,67.61
2019-03-30T01:49:08.563Z,67.60
2019-03-30T01:49:39.797Z,67.47
2019-03-30T01:50:17.689Z,67.40
2019-03-30T01:50:43.928Z,67.41
2019-03-30T01:51:15.148Z,67.45
2019-03-30T01:51:46.352Z,67.47
2019-03-30T01:52:17.571Z,67.26
2019-03-30T01:52:48.807Z,67.34
2019-03-30T01:53:20.115Z,67.56
2019-03-30T01:53:51.385Z,68.20
2019-03-30T01:54:22.620Z,67.67
2019-03-30T01:54:53.825Z,67.57
2019-03-30T01:55:25.043Z,68.00
2019-03-30T01:55:56.236Z,67.76
2019-03-30T01:56:27.491Z,67.32
2019-03-30T01:56:58.722Z,67.21
2019-03-30T01:57:29.937Z,67.21
2019-03-30T01:58:01.187Z,67.19
2019-03-30T01:58:32.363Z,67.22
2019-03-30T01:59:03.572Z,67.25
2019-03-30T01:59:34.783Z,67.35
2019-03-30T02:00:05.994Z,67.46
2019-03-30T02:00:37.245Z,67.69
2019-03-30T02:01:08.494Z,67.77
2019-03-30T02:01:39.758Z,67.70
2019-03-30T02:02:11.003Z,67.59
2019-03-30T02:02:42.206Z,67.50
2019-03-30T02:03:13.452Z,67.49
2019-03-30T02:03:44.636Z,67.47
2019-03-30T02:04:15.840Z,67.46
2019-03-30T02:04:47.042Z,67.29
2019-03-30T02:05:18.266Z,67.12
2019-03-30T02:05:49.531Z,67.06
2019-03-30T02:06:20.740Z,67.10
2019-03-30T02:06:51.939Z,67.16
2019-03-30T02:07:23.142Z,66.96
2019-03-30T02:07:54.351Z,66.85
2019-03-30T02:08:25.561Z,66.83
2019-03-30T02:08:56.772Z,66.92
2019-03-30T02:09:28.010Z,66.89
2019-03-30T02:09:59.309Z,66.83
2019-03-30T02:10:30.516Z,66.92
2019-03-30T02:11:01.802Z,66.99
2019-03-30T02:11:33.019Z,67.01
2019-03-30T02:12:04.265Z,67.01
2019-03-30T02:12:35.489Z,67.09
2019-03-30T02:13:06.688Z,67.24
2019-03-30T02:13:37.939Z,67.23
2019-03-30T02:14:09.173Z,67.22
2019-03-30T02:14:42.258Z,67.36
2019-03-30T02:15:13.512Z,67.45
2019-03-30T02:15:44.729Z,67.54
2019-03-30T02:16:15.943Z,67.71
2019-03-30T02:16:47.157Z,67.70
2019-03-30T02:17:20.158Z,67.40
2019-03-30T02:17:51.314Z,67.35
2019-03-30T02:18:22.567Z,67.36
2019-03-30T02:18:53.790Z,67.42
2019-03-30T02:19:24.972Z,68.38
2019-03-30T02:19:56.202Z,68.66
2019-03-30T02:20:30.925Z,67.73
2019-03-30T02:21:00.421Z,66.38
2019-03-30T02:21:31.631Z,66.04
2019-03-30T02:22:02.884Z,65.77
2019-03-30T02:22:34.088Z,65.94
2019-03-30T02:23:05.290Z,65.79
2019-03-30T02:23:36.510Z,65.91
2019-03-30T02:24:07.735Z,65.74
2019-03-30T02:24:38.998Z,65.30
2019-03-30T02:25:10.271Z,65.08
2019-03-30T02:25:41.479Z,65.03
2019-03-30T02:26:12.762Z,65.15
2019-03-30T02:26:44.002Z,65.29
2019-03-30T02:27:15.224Z,65.22
2019-03-30T02:27:46.476Z,65.04
2019-03-30T02:28:17.723Z,65.12
2019-03-30T02:28:48.933Z,65.46
2019-03-30T02:29:20.163Z,64.97
2019-03-30T02:29:51.380Z,65.15
2019-03-30T02:30:22.596Z,65.45
2019-03-30T02:30:53.825Z,65.67
2019-03-30T02:31:25.058Z,65.81
2019-03-30T02:31:56.251Z,65.94
2019-03-30T02:32:27.498Z,66.14
2019-03-30T02:32:58.700Z,66.48
2019-03-30T02:33:29.902Z,66.66
2019-03-30T02:34:01.114Z,66.81
2019-03-30T02:34:32.349Z,67.58
2019-03-30T02:35:03.592Z,66.96
2019-03-30T02:35:34.806Z,66.62
2019-03-30T02:36:06.064Z,66.48
2019-03-30T02:36:37.327Z,66.42
2019-03-30T02:37:08.520Z,66.35
2019-03-30T02:37:39.735Z,66.36
2019-03-30T02:38:10.943Z,66.58
2019-03-30T02:38:42.161Z,66.86
2019-03-30T02:39:13.371Z,67.09
2019-03-30T02:39:44.585Z,67.40
2019-03-30T02:40:15.875Z,67.80
2019-03-30T02:40:47.091Z,68.17
2019-03-30T02:41:18.351Z,68.45
2019-03-30T02:41:49.534Z,68.68
2019-03-30T02:42:20.757Z,68.81
2019-03-30T02:42:51.972Z,68.98
2019-03-30T02:43:23.310Z,69.47
2019-03-30T02:43:54.509Z,69.70
2019-03-30T02:44:25.719Z,69.45
2019-03-30T02:44:56.946Z,68.93
2019-03-30T02:45:28.207Z,68.51
2019-03-30T02:45:59.410Z,68.24
2019-03-30T02:46:30.629Z,68.23
2019-03-30T02:47:01.875Z,68.66
2019-03-30T02:47:33.136Z,68.21
2019-03-30T02:48:04.378Z,67.86
2019-03-30T02:48:35.622Z,67.75
2019-03-30T02:49:06.839Z,67.94
2019-03-30T02:49:38.046Z,68.07
2019-03-30T02:50:09.305Z,68.14
2019-03-30T02:50:50.139Z,68.56
2019-03-30T02:51:13.502Z,68.90
2019-03-30T02:51:44.709Z,68.86
2019-03-30T02:52:15.944Z,68.74
2019-03-30T02:52:47.193Z,68.79
2019-03-30T02:53:18.451Z,68.78
2019-03-30T02:53:49.665Z,68.93
2019-03-30T02:54:20.866Z,68.92
2019-03-30T02:54:52.078Z,69.16
2019-03-30T02:55:23.289Z,69.07
2019-03-30T02:55:54.503Z,69.07
2019-03-30T02:56:25.717Z,69.20
2019-03-30T02:56:56.929Z,69.11
2019-03-30T02:57:28.198Z,69.19
2019-03-30T02:57:59.493Z,69.33
2019-03-30T02:58:30.665Z,69.30
2019-03-30T02:59:01.874Z,69.27
2019-03-30T02:59:33.101Z,69.23
2019-03-30T03:00:04.312Z,69.15
2019-03-30T03:00:35.535Z,68.93
2019-03-30T03:01:06.775Z,68.67
2019-03-30T03:01:38.005Z,68.62
2019-03-30T03:02:09.201Z,68.73
2019-03-30T03:02:40.462Z,68.70
2019-03-30T03:03:11.680Z,69.02
2019-03-30T03:03:42.884Z,69.69
2019-03-30T03:04:14.093Z,69.33
2019-03-30T03:04:45.313Z,68.80
2019-03-30T03:05:16.532Z,68.62
2019-03-30T03:05:47.781Z,68.74
2019-03-30T03:06:18.993Z,68.67
2019-03-30T03:06:50.252Z,68.70
2019-03-30T03:07:21.469Z,68.63
2019-03-30T03:07:52.722Z,68.42
2019-03-30T03:08:23.946Z,68.62
2019-03-30T03:08:55.138Z,68.42
2019-03-30T03:09:26.350Z,68.02
2019-03-30T03:09:57.554Z,67.54
2019-03-30T03:10:28.774Z,67.20
2019-03-30T03:10:59.975Z,67.17
2019-03-30T03:11:31.202Z,67.10
2019-03-30T03:12:02.404Z,67.59
2019-03-30T03:12:33.606Z,67.21
2019-03-30T03:13:04.815Z,67.17
2019-03-30T03:13:36.033Z,66.68
2019-03-30T03:14:07.238Z,66.38
2019-03-30T03:14:38.481Z,66.38
2019-03-30T03:15:09.688Z,65.98
2019-03-30T03:15:40.898Z,66.11
2019-03-30T03:16:12.099Z,66.33
2019-03-30T03:16:43.301Z,66.44
2019-03-30T03:17:14.515Z,66.48
2019-03-30T03:17:45.729Z,66.55
2019-03-30T03:18:16.943Z,66.62
2019-03-30T03:18:48.161Z,66.70
2019-03-30T03:19:19.360Z,66.69
2019-03-30T03:19:50.623Z,66.66
2019-03-30T03:20:21.820Z,66.68
2019-03-30T03:21:06.740Z,66.74
2019-03-30T03:21:25.997Z,66.73
2019-03-30T03:21:57.218Z,66.65
2019-03-30T03:22:28.405Z,66.56
2019-03-30T03:22:59.645Z,66.66
2019-03-30T03:23:30.840Z,66.88
2019-03-30T03:24:02.049Z,66.96
2019-03-30T03:24:33.260Z,67.11
2019-03-30T03:25:04.516Z,67.14
2019-03-30T03:25:35.724Z,67.11
2019-03-30T03:26:06.938Z,67.30
2019-03-30T03:26:38.147Z,67.40
2019-03-30T03:27:09.365Z,67.49
2019-03-30T03:27:40.623Z,67.80
2019-03-30T03:28:11.847Z,67.83
2019-03-30T03:28:43.068Z,67.84
2019-03-30T03:29:14.292Z,67.86
2019-03-30T03:29:45.504Z,67.68
2019-03-30T03:30:16.778Z,67.66
2019-03-30T03:30:48.011Z,67.60
2019-03-30T03:31:19.283Z,67.97
2019-03-30T03:31:50.520Z,68.90
2019-03-30T03:32:21.725Z,67.81
2019-03-30T03:32:52.977Z,67.28
2019-03-30T03:33:24.205Z,66.85
2019-03-30T03:33:55.425Z,66.56
2019-03-30T03:34:26.737Z,66.42
2019-03-30T03:34:57.942Z,66.41
2019-03-30T03:35:29.139Z,66.45
2019-03-30T03:36:00.398Z,66.35
2019-03-30T03:36:31.610Z,66.25
2019-03-30T03:37:02.811Z,66.79
2019-03-30T03:37:44.926Z,66.75
2019-03-30T03:38:06.955Z,66.52
2019-03-30T03:38:38.170Z,66.44
2019-03-30T03:39:09.377Z,66.39
2019-03-30T03:39:40.605Z,66.31
2019-03-30T03:40:11.804Z,66.33
2019-03-30T03:40:43.017Z,66.37
2019-03-30T03:41:14.279Z,66.23
2019-03-30T03:41:45.532Z,66.67
2019-03-30T03:42:16.726Z,66.24
2019-03-30T03:42:47.953Z,65.95
2019-03-30T03:43:19.163Z,65.75
2019-03-30T03:43:50.382Z,65.85
2019-03-30T03:44:21.603Z,65.77
2019-03-30T03:44:52.822Z,65.72
2019-03-30T03:45:24.045Z,65.56
2019-03-30T03:45:55.274Z,65.53
2019-03-30T03:46:26.501Z,65.65
2019-03-30T03:46:57.735Z,65.58
2019-03-30T03:47:28.959Z,65.69
2019-03-30T03:48:00.180Z,65.75
2019-03-30T03:48:31.402Z,65.79
2019-03-30T03:49:04.408Z,65.86
2019-03-30T03:49:35.620Z,65.87
2019-03-30T03:50:07.240Z,65.83
2019-03-30T03:50:38.463Z,65.74
2019-03-30T03:51:25.073Z,65.70
2019-03-30T03:51:42.605Z,65.99
2019-03-30T03:52:13.833Z,66.14
2019-03-30T03:52:45.077Z,65.82
2019-03-30T03:53:16.289Z,65.77
2019-03-30T03:53:47.498Z,65.81
2019-03-30T03:54:18.709Z,66.29
2019-03-30T03:54:49.923Z,66.08
2019-03-30T03:55:21.134Z,65.67
2019-03-30T03:55:52.369Z,65.85
2019-03-30T03:56:23.623Z,66.17
2019-03-30T03:56:54.882Z,66.50
2019-03-30T03:57:26.093Z,66.99
2019-03-30T03:57:57.307Z,66.98
2019-03-30T03:58:28.544Z,67.05
2019-03-30T03:58:59.754Z,67.27
2019-03-30T03:59:30.962Z,67.14
2019-03-30T04:00:02.181Z,67.21
2019-03-30T04:00:33.383Z,67.25
2019-03-30T04:01:04.578Z,67.25
2019-03-30T04:01:35.788Z,67.42
2019-03-30T04:02:06.994Z,67.36
2019-03-30T04:02:38.248Z,67.05
2019-03-30T04:03:09.488Z,67.01
2019-03-30T04:03:40.768Z,67.37
2019-03-30T04:04:11.963Z,67.44
2019-03-30T04:04:47.048Z,67.50
2019-03-30T04:05:16.134Z,67.68
2019-03-30T04:05:47.363Z,67.71
2019-03-30T04:06:18.550Z,67.69
2019-03-30T04:06:49.775Z,67.79
2019-03-30T04:07:20.998Z,68.01
2019-03-30T04:07:52.239Z,68.08
2019-03-30T04:08:23.426Z,68.13
2019-03-30T04:08:54.693Z,68.32
2019-03-30T04:09:25.964Z,68.72
2019-03-30T04:09:57.177Z,68.26
2019-03-30T04:10:28.435Z,67.65
2019-03-30T04:10:59.631Z,67.72
2019-03-30T04:11:30.851Z,67.84
2019-03-30T04:12:02.069Z,67.80
2019-03-30T04:12:33.295Z,67.57
2019-03-30T04:13:06.936Z,67.65
2019-03-30T04:13:37.443Z,67.72
2019-03-30T04:14:08.701Z,67.83
2019-03-30T04:14:39.909Z,68.01
2019-03-30T04:15:11.127Z,68.22
2019-03-30T04:15:42.351Z,68.21
2019-03-30T04:16:13.561Z,68.26
2019-03-30T04:16:44.778Z,68.49
2019-03-30T04:17:16.038Z,68.97
2019-03-30T04:17:47.309Z,68.84
2019-03-30T04:18:18.520Z,68.52
2019-03-30T04:18:49.749Z,68.89
2019-03-30T04:19:20.940Z,67.89
2019-03-30T04:19:52.161Z,67.23
2019-03-30T04:20:23.407Z,67.76
2019-03-30T04:20:54.607Z,67.07
2019-03-30T04:21:42.442Z,66.57
2019-03-30T04:21:58.816Z,66.24
2019-03-30T04:22:30.071Z,66.61
2019-03-30T04:23:01.343Z,67.58
2019-03-30T04:23:32.553Z,66.75
2019-03-30T04:24:03.753Z,66.01
2019-03-30T04:24:35.003Z,65.95
2019-03-30T04:25:06.206Z,66.06
2019-03-30T04:25:37.438Z,66.11
2019-03-30T04:26:08.684Z,66.02
2019-03-30T04:26:39.894Z,65.95
2019-03-30T04:27:11.098Z,66.08
2019-03-30T04:27:42.302Z,66.23
2019-03-30T04:28:13.558Z,66.44
2019-03-30T04:28:44.778Z,66.87
2019-03-30T04:29:15.998Z,67.15
2019-03-30T04:29:47.215Z,67.30
2019-03-30T04:30:18.416Z,67.32
2019-03-30T04:30:49.620Z,67.25
2019-03-30T04:31:20.835Z,67.37
2019-03-30T04:31:52.074Z,67.58
2019-03-30T04:32:23.334Z,67.66
2019-03-30T04:32:54.586Z,67.74
2019-03-30T04:33:25.911Z,67.76
2019-03-30T04:33:57.132Z,67.77
2019-03-30T04:34:28.331Z,67.79
2019-03-30T04:34:59.543Z,67.99
2019-03-30T04:35:30.740Z,67.40
2019-03-30T04:36:01.948Z,67.37
2019-03-30T04:36:33.170Z,67.28
2019-03-30T04:37:04.392Z,67.25
2019-03-30T04:37:35.599Z,67.33
2019-03-30T04:38:06.807Z,67.25
2019-03-30T04:38:38.094Z,67.08
2019-03-30T04:39:09.296Z,67.16
2019-03-30T04:39:40.544Z,67.24
2019-03-30T04:40:11.738Z,67.08
2019-03-30T04:40:42.932Z,66.94
2019-03-30T04:41:14.141Z,66.89
2019-03-30T04:41:45.374Z,66.93
2019-03-30T04:42:16.590Z,66.80
2019-03-30T04:42:47.810Z,66.60
2019-03-30T04:43:19.045Z,66.65
2019-03-30T04:43:50.283Z,66.84
2019-03-30T04:44:21.486Z,66.78
2019-03-30T04:44:52.706Z,66.79
2019-03-30T04:45:24.002Z,66.79
2019-03-30T04:45:55.202Z,66.65
2019-03-30T04:46:26.417Z,66.58
2019-03-30T04:46:57.630Z,66.59
2019-03-30T04:47:28.861Z,66.52
2019-03-30T04:48:00.094Z,66.47
2019-03-30T04:48:31.419Z,66.38
2019-03-30T04:49:02.673Z,67.25
2019-03-30T04:49:33.881Z,66.37
2019-03-30T04:50:05.093Z,65.95
2019-03-30T04:50:36.328Z,65.85
2019-03-30T04:51:07.532Z,65.46
2019-03-30T04:51:38.733Z,65.43
2019-03-30T04:52:09.952Z,65.42
2019-03-30T04:52:41.165Z,65.17
2019-03-30T04:53:12.380Z,64.85
2019-03-30T04:53:43.618Z,64.86
2019-03-30T04:54:14.937Z,64.70
2019-03-30T04:54:46.142Z,64.70
2019-03-30T04:55:17.351Z,64.79
2019-03-30T04:55:48.580Z,64.58
2019-03-30T04:56:19.798Z,64.83
2019-03-30T04:56:51.006Z,65.12
2019-03-30T04:57:22.213Z,65.12
2019-03-30T04:57:53.427Z,65.53
2019-03-30T04:58:24.664Z,65.79
2019-03-30T04:58:55.921Z,65.72
2019-03-30T04:59:27.139Z,65.94
2019-03-30T04:59:58.364Z,65.71
2019-03-30T05:00:29.664Z,66.05
2019-03-30T05:01:00.883Z,65.99
2019-03-30T05:01:32.087Z,66.09
2019-03-30T05:02:03.308Z,66.11
2019-03-30T05:02:34.512Z,66.29
2019-03-30T05:03:05.728Z,66.46
2019-03-30T05:03:36.936Z,66.67
2019-03-30T05:04:08.229Z,66.95
2019-03-30T05:04:39.434Z,66.36
2019-03-30T05:05:10.646Z,66.08
2019-03-30T05:05:43.220Z,65.70
2019-03-30T05:06:14.644Z,65.21
2019-03-30T05:06:45.866Z,65.35
2019-03-30T05:07:17.086Z,65.27
2019-03-30T05:07:48.310Z,65.39
2019-03-30T05:08:19.501Z,64.46
2019-03-30T05:08:50.761Z,64.26
2019-03-30T05:09:21.986Z,64.49
2019-03-30T05:09:53.195Z,63.76
2019-03-30T05:10:24.396Z,63.46
2019-03-30T05:10:55.672Z,63.55
2019-03-30T05:11:26.874Z,63.29
2019-03-30T05:11:58.124Z,63.15
2019-03-30T05:12:29.358Z,62.47
2019-03-30T05:13:00.657Z,62.23
2019-03-30T05:13:31.910Z,62.45
2019-03-30T05:14:03.123Z,61.98
2019-03-30T05:14:34.336Z,61.94
2019-03-30T05:15:05.560Z,62.15
2019-03-30T05:15:36.771Z,61.90
2019-03-30T05:16:07.992Z,61.99
2019-03-30T05:16:39.214Z,62.16
2019-03-30T05:17:10.499Z,62.39
2019-03-30T05:17:47.357Z,62.57
2019-03-30T05:18:14.654Z,62.75
2019-03-30T05:18:45.877Z,62.86
2019-03-30T05:19:17.090Z,62.89
2019-03-30T05:19:48.291Z,63.11
2019-03-30T05:20:19.534Z,63.29
2019-03-30T05:20:50.741Z,63.35
2019-03-30T05:21:22.025Z,63.45
2019-03-30T05:21:53.253Z,63.49
2019-03-30T05:22:24.450Z,63.45
2019-03-30T05:22:55.686Z,63.44
2019-03-30T05:23:26.899Z,63.73
2019-03-30T05:23:58.103Z,63.64
2019-03-30T05:24:29.311Z,63.22
2019-03-30T05:25:00.588Z,63.18
2019-03-30T05:25:31.803Z,63.52
2019-03-30T05:26:03.022Z,63.63
2019-03-30T05:26:34.219Z,63.74
2019-03-30T05:27:05.484Z,63.65
2019-03-30T05:27:36.725Z,63.74
2019-03-30T05:28:07.965Z,63.82
2019-03-30T05:28:39.216Z,63.79
2019-03-30T05:29:10.431Z,63.82
2019-03-30T05:29:41.656Z,63.91
2019-03-30T05:30:12.881Z,64.01
2019-03-30T05:30:44.113Z,63.84
2019-03-30T05:31:15.368Z,63.81
2019-03-30T05:31:46.566Z,63.87
2019-03-30T05:32:17.778Z,63.76
2019-03-30T05:33:04.973Z,63.34
2019-03-30T05:33:24.702Z,63.05
2019-03-30T05:33:55.917Z,62.76
2019-03-30T05:34:27.208Z,62.76
2019-03-30T05:34:58.421Z,62.79
2019-03-30T05:35:29.642Z,63.20
2019-03-30T05:36:00.857Z,62.73
2019-03-30T05:36:32.090Z,62.20
2019-03-30T05:37:03.297Z,62.23
2019-03-30T05:37:34.499Z,61.79
2019-03-30T05:38:05.744Z,61.67
2019-03-30T05:38:36.956Z,61.72
2019-03-30T05:39:08.167Z,61.72
2019-03-30T05:39:39.421Z,61.86
2019-03-30T05:40:10.708Z,62.21
2019-03-30T05:40:41.894Z,61.79
2019-03-30T05:41:13.114Z,61.41
2019-03-30T05:41:44.328Z,61.43
2019-03-30T05:42:15.518Z,61.42
2019-03-30T05:42:46.736Z,61.32
2019-03-30T05:43:17.961Z,61.54
2019-03-30T05:43:49.173Z,61.83
2019-03-30T05:44:20.482Z,61.69
2019-03-30T05:44:51.685Z,61.64
2019-03-30T05:45:22.928Z,61.31
2019-03-30T05:45:54.132Z,61.23
2019-03-30T05:46:25.355Z,61.25
2019-03-30T05:46:56.617Z,61.41
2019-03-30T05:47:27.823Z,61.38
2019-03-30T05:47:59.037Z,61.54
2019-03-30T05:48:30.284Z,61.62
2019-03-30T05:49:01.518Z,61.51
2019-03-30T05:49:32.725Z,62.28
2019-03-30T05:50:03.943Z,61.53
2019-03-30T05:50:35.198Z,61.16
2019-03-30T05:51:06.434Z,61.19
2019-03-30T05:51:37.653Z,60.87
2019-03-30T05:52:08.871Z,60.76
2019-03-30T05:52:40.077Z,60.52
2019-03-30T05:53:11.285Z,60.42
2019-03-30T05:53:42.496Z,59.71
2019-03-30T05:54:13.711Z,60.18
2019-03-30T05:54:44.921Z,60.08
2019-03-30T05:55:16.208Z,60.14
2019-03-30T05:55:47.458Z,60.27
2019-03-30T05:56:18.682Z,59.95
2019-03-30T05:56:49.896Z,60.19
2019-03-30T05:57:21.107Z,59.62
2019-03-30T05:57:52.317Z,59.98
2019-03-30T05:58:23.529Z,60.12
2019-03-30T05:58:54.738Z,60.40
2019-03-30T05:59:25.952Z,59.68
2019-03-30T05:59:57.165Z,59.12
2019-03-30T06:00:28.406Z,59.55
2019-03-30T06:00:59.639Z,60.06
2019-03-30T06:01:30.838Z,59.44
2019-03-30T06:02:02.061Z,59.25
2019-03-30T06:02:33.276Z,59.25
2019-03-30T06:03:04.472Z,58.25
2019-03-30T06:03:35.699Z,57.45
2019-03-30T06:04:06.933Z,56.68
2019-03-30T06:04:38.150Z,56.71
2019-03-30T06:05:09.412Z,56.54
2019-03-30T06:05:40.644Z,56.59
2019-03-30T06:06:11.861Z,56.61
2019-03-30T06:06:43.076Z,57.03
2019-03-30T06:07:14.347Z,56.44
2019-03-30T06:07:45.556Z,56.08
2019-03-30T06:08:16.781Z,56.49
2019-03-30T06:08:47.992Z,56.07
2019-03-30T06:09:19.238Z,55.53
2019-03-30T06:09:50.496Z,55.14
2019-03-30T06:10:21.713Z,54.92
2019-03-30T06:10:52.931Z,55.13
2019-03-30T06:11:24.130Z,55.19
2019-03-30T06:11:55.340Z,55.32
2019-03-30T06:12:26.676Z,55.46
2019-03-30T06:12:57.867Z,55.57
2019-03-30T06:13:29.087Z,55.71
2019-03-30T06:14:00.338Z,55.72
2019-03-30T06:14:31.558Z,55.79
2019-03-30T06:15:02.844Z,55.89
2019-03-30T06:15:34.051Z,55.72
2019-03-30T06:16:05.258Z,55.82
2019-03-30T06:16:36.487Z,55.72
2019-03-30T06:17:07.742Z,55.31
2019-03-30T06:17:38.981Z,54.97
2019-03-30T06:18:11.501Z,54.87
2019-03-30T06:18:42.936Z,54.84
2019-03-30T06:19:14.198Z,54.58
2019-03-30T06:19:45.435Z,53.96
2019-03-30T06:20:16.646Z,53.41
2019-03-30T06:20:47.843Z,52.75
2019-03-30T06:21:19.069Z,52.98
2019-03-30T06:21:50.283Z,52.88
2019-03-30T06:22:21.549Z,52.80
2019-03-30T06:22:52.729Z,53.26
2019-03-30T06:23:23.928Z,53.11
2019-03-30T06:23:55.163Z,52.26
2019-03-30T06:24:26.396Z,52.00
2019-03-30T06:24:57.607Z,51.87
2019-03-30T06:25:28.825Z,52.08
2019-03-30T06:26:00.056Z,51.74
2019-03-30T06:26:31.324Z,51.83
2019-03-30T06:27:02.573Z,51.64
2019-03-30T06:27:33.767Z,51.89
2019-03-30T06:28:05.013Z,52.06
2019-03-30T06:28:36.265Z,51.75
2019-03-30T06:29:07.458Z,51.77
2019-03-30T06:29:38.699Z,52.01
2019-03-30T06:30:09.930Z,51.70
2019-03-30T06:30:41.130Z,51.15
2019-03-30T06:31:12.350Z,50.92
2019-03-30T06:31:46.648Z,50.49
2019-03-30T06:32:16.533Z,50.61
2019-03-30T06:32:47.779Z,50.52
2019-03-30T06:33:18.994Z,50.40
2019-03-30T06:33:50.234Z,50.34
2019-03-30T06:34:21.507Z,50.19
2019-03-30T06:34:52.708Z,50.27
2019-03-30T06:35:23.936Z,50.48
2019-03-30T06:35:55.140Z,50.99
2019-03-30T06:36:26.370Z,50.75
2019-03-30T06:36:57.591Z,50.91
2019-03-30T06:37:28.854Z,50.29
2019-03-30T06:38:00.062Z,50.14
2019-03-30T06:38:31.328Z,50.99
2019-03-30T06:39:02.540Z,51.31
2019-03-30T06:39:36.889Z,50.68
2019-03-30T06:40:06.690Z,50.44
2019-03-30T06:40:37.898Z,50.74
2019-03-30T06:41:09.123Z,50.98
2019-03-30T06:41:40.352Z,50.58
2019-03-30T06:42:11.526Z,50.33
2019-03-30T06:42:42.763Z,50.64